Aeroporto :
LOGIN :

Iscrizione | Disclaimer

   EN    FR    IT 

 










Sommario :    VFR   VFR Marginale   IFR   IFR Intensivo   IFR Molto Intensivo
Visibilità : 
Base nubi : 
>= 8 km
>= 3000ft
5 / 8 km
1000 / 3000 ft
1500m / 5 km
500 / 1000 ft
800 / 1500m
200 / 500 ft
< 800m
< 200 ft
Simboli :   Temporali  Nebbia  Neve Forte  Precipitazioni Forti  Vento > 20 kt
SIGMETs :   Varie  Temporali  Ghiacco  Turbolenza  Onda orograficha  Ceneri Vulcaniche







- Altitudine del aeroporto : 1465 ft


LSMP - Payerne

ULTIMO METAR :
  • 260820Z 19003KT 150V230 9999 FEW061 07/05 Q1016 RMK BLU+

METARs OBSOLETI :
  • 260750Z VRB02KT 9999 FEW015 BKN060 07/05 Q1016 RMK BLU
  • 260720Z VRB02KT 9999 SCT013 OVC059 06/05 Q1016 RMK BLU
  • 260650Z VRB02KT 9999 FEW014 SCT044 BKN054 06/04 Q1016 RMK BLU
  • 260620Z VRB02KT 9999 FEW012 SCT025 OVC044 06/04 Q1015 RMK BLU
  • 260550Z 14003KT 9999 -SHRA OVC013 05/04 Q1015 RMK GRN

Previsioni scadute.
Nessun NOTAM noto per questo aeroporto.
1 SIGMET conosciuto per la FIR Switzerland (LSAS) :
 
Temporali affogati
LSAS SIGMET 4 VALID 260700/260900 LSZH
LSAS SWITZERLAND FIR/UIR EMBD TS OBS WI N4641 E00836 - N4635 E00933 - N4545 E00902 - N4618 E00815 - N4641 E00836 TOP FL240 STNR NC=



MetMap, La meteo Aeronautica in un colpo d'occhio ! - Copyright ORBIFLY Dicembre 2007 - Disclaimer

ORBIFLY MET'MAP TEAM :

Programmazione e sviluppo : Alexandra Zaïnal
Concezione e sviluppo : Baudouin d'Aumeries
Co-Programmazione e sviluppo : Marc-Olivier Méhu
Supporto tecnico e logistico : Manuel Goepfert
Aiuto per la traduzione : Arnaldo La Scala

Contatto : metmap@orbifly.com




FONTI E CREDITI :

   NOAA